Time;durP1;ratioP1;P1;durP2;ratioP2;P2;SDS_P1;SDS_P2;PMS_P1;PMS_P2;Temp;Humidity;BMP_temperature;BMP_pressure;BME280_temperature;BME280_humidity;BME280_pressure;Samples;Min_cycle;Max_cycle;Signal;HPM_P1;HPM_P2
2021/07/21 00:00:43;;;;;;;12.10;8.47;;;17.60;99.90;;;;;;5105138;28;20212;-45
2021/07/21 00:03:11;;;;;;;9.57;8.57;;;17.60;99.90;;;;;;5100948;28;20898;-43
2021/07/21 00:05:38;;;;;;;11.57;8.47;;;17.60;99.90;;;;;;5104924;28;20205;-43
2021/07/21 00:08:05;;;;;;;10.73;8.03;;;17.60;99.90;;;;;;5099475;28;20943;-43
2021/07/21 00:10:33;;;;;;;11.63;8.70;;;17.60;99.90;;;;;;5090388;28;20212;-47
2021/07/21 00:15:56;;;;;;;11.60;8.90;;;17.60;99.90;;;;;;5104699;28;20230;-42
2021/07/21 00:18:28;;;;;;;15.50;9.77;;;17.60;99.90;;;;;;5103279;28;20926;-43
2021/07/21 00:20:55;;;;;;;12.07;9.37;;;17.60;99.90;;;;;;5102911;28;20216;-43
2021/07/21 00:23:22;;;;;;;11.10;8.97;;;17.60;99.90;;;;;;5103660;28;20181;-45
2021/07/21 00:25:50;;;;;;;13.37;8.87;;;17.60;99.90;;;;;;5100957;28;20220;-43
2021/07/21 00:28:17;;;;;;;15.23;9.53;;;17.60;99.90;;;;;;5093098;27;20185;-43
2021/07/21 00:30:44;;;;;;;12.50;8.73;;;17.60;99.90;;;;;;5105554;28;20571;-44
2021/07/21 00:33:14;;;;;;;15.17;8.87;;;17.60;99.90;;;;;;5102348;28;20169;-47
2021/07/21 00:35:42;;;;;;;14.50;9.70;;;17.60;99.90;;;;;;5105871;28;20655;-43
2021/07/21 00:38:08;;;;;;;12.20;8.57;;;17.50;99.90;;;;;;5101169;28;20181;-44
2021/07/21 00:40:35;;;;;;;14.03;9.37;;;17.50;99.90;;;;;;5104818;28;20259;-45
2021/07/21 00:43:02;;;;;;;11.80;8.97;;;17.50;99.90;;;;;;5087501;28;20201;-44
2021/07/21 00:45:29;;;;;;;10.87;8.90;;;17.50;99.90;;;;;;5102489;28;20708;-43
2021/07/21 00:47:56;;;;;;;13.00;8.90;;;17.50;99.90;;;;;;5102160;28;20197;-42
2021/07/21 00:50:24;;;;;;;10.83;8.00;;;17.50;99.90;;;;;;5101848;28;20223;-43
2021/07/21 00:52:54;;;;;;;12.17;8.50;;;17.40;99.90;;;;;;5103012;28;20635;-43
2021/07/21 00:55:23;;;;;;;10.93;7.87;;;17.40;99.90;;;;;;5101892;28;20307;-43
2021/07/21 00:57:54;;;;;;;11.80;8.13;;;17.30;99.90;;;;;;5095565;28;20735;-43
2021/07/21 01:00:22;;;;;;;12.13;7.97;;;17.30;99.90;;;;;;5095354;28;20209;-45
2021/07/21 01:02:53;;;;;;;13.07;8.33;;;17.30;99.90;;;;;;5103292;28;20189;-44
2021/07/21 01:05:26;;;;;;;10.83;8.30;;;17.30;99.90;;;;;;5101967;28;20295;-45
2021/07/21 01:07:56;;;;;;;16.57;9.13;;;17.30;99.90;;;;;;5101660;28;20213;-43
2021/07/21 01:10:25;;;;;;;12.13;8.33;;;17.30;99.90;;;;;;5101946;28;20213;-45
2021/07/21 01:12:57;;;;;;;9.00;7.40;;;17.30;99.90;;;;;;5097124;28;20229;-42
2021/07/21 01:15:33;;;;;;;9.27;7.67;;;17.30;99.90;;;;;;5098653;28;20724;-44
2021/07/21 01:18:03;;;;;;;12.47;7.67;;;17.30;99.90;;;;;;5101616;28;20189;-43
2021/07/21 01:20:49;;;;;;;9.27;7.70;;;17.30;99.90;;;;;;5103093;28;20751;-44
2021/07/21 01:23:56;;;;;;;10.07;7.50;;;17.30;99.90;;;;;;5101826;28;20371;-47
2021/07/21 01:26:26;;;;;;;10.47;7.27;;;17.30;99.90;;;;;;5102559;28;20903;-44
2021/07/21 01:28:56;;;;;;;10.17;7.23;;;17.30;99.90;;;;;;5095152;28;20656;-43
2021/07/21 01:31:28;;;;;;;9.10;6.93;;;17.20;99.90;;;;;;5097824;28;20278;-46
2021/07/21 01:33:58;;;;;;;8.07;6.73;;;17.20;99.90;;;;;;5102381;28;20201;-43
2021/07/21 01:36:29;;;;;;;8.53;6.60;;;17.20;99.90;;;;;;5103395;28;20185;-46
2021/07/21 01:39:03;;;;;;;9.37;7.10;;;17.20;99.90;;;;;;5098873;28;20198;-42
2021/07/21 01:41:37;;;;;;;9.37;6.90;;;17.20;99.90;;;;;;5103840;28;20617;-44
2021/07/21 01:44:09;;;;;;;10.27;6.93;;;17.20;99.90;;;;;;5099757;28;20714;-43
2021/07/21 01:46:41;;;;;;;9.67;7.63;;;17.20;99.90;;;;;;5081952;28;20205;-45
2021/07/21 01:49:11;;;;;;;9.43;6.93;;;17.20;99.90;;;;;;5098770;28;20189;-47
2021/07/21 01:51:43;;;;;;;11.67;7.60;;;17.20;99.90;;;;;;5105537;28;20196;-45
2021/07/21 01:54:11;;;;;;;12.20;7.83;;;17.20;99.90;;;;;;5098982;28;20217;-45
2021/07/21 01:56:54;;;;;;;13.40;8.10;;;17.20;99.90;;;;;;5101400;28;20200;-42
2021/07/21 01:59:30;;;;;;;10.17;8.73;;;17.20;99.90;;;;;;5101571;28;20197;-44
2021/07/21 02:02:07;;;;;;;12.13;8.83;;;17.20;99.90;;;;;;5084592;28;20218;-44
2021/07/21 02:04:44;;;;;;;13.47;8.90;;;17.20;99.90;;;;;;5102743;28;20270;-45
2021/07/21 02:07:12;;;;;;;14.03;9.00;;;17.10;99.90;;;;;;5100879;28;20787;-45
2021/07/21 02:09:42;;;;;;;11.00;8.67;;;17.10;99.90;;;;;;5102491;28;20228;-47
2021/07/21 02:12:14;;;;;;;12.43;9.07;;;17.20;99.90;;;;;;5098468;28;20182;-44
2021/07/21 02:14:44;;;;;;;13.10;8.90;;;17.20;99.90;;;;;;5102757;28;20221;-45
2021/07/21 02:17:16;;;;;;;8.93;8.00;;;17.10;99.90;;;;;;5085507;28;20209;-46
2021/07/21 02:19:46;;;;;;;13.90;9.07;;;17.10;99.90;;;;;;5102328;28;20235;-44
2021/07/21 02:22:31;;;;;;;11.93;8.87;;;17.10;99.90;;;;;;5107712;28;20219;-45
2021/07/21 02:25:21;;;;;;;12.20;9.80;;;17.10;99.90;;;;;;5105042;28;20216;-45
2021/07/21 02:27:48;;;;;;;11.90;8.70;;;17.10;99.90;;;;;;5105966;28;20205;-43
2021/07/21 02:30:17;;;;;;;12.40;9.17;;;17.10;99.90;;;;;;5104629;28;20254;-43
2021/07/21 02:32:50;;;;;;;12.67;9.57;;;17.10;99.90;;;;;;5091846;28;20210;-44
2021/07/21 02:35:20;;;;;;;12.57;10.10;;;17.20;99.90;;;;;;5102986;28;20228;-46
2021/07/21 02:37:48;;;;;;;15.60;9.27;;;17.10;99.90;;;;;;5105526;28;20193;-46
2021/07/21 02:40:16;;;;;;;12.03;9.97;;;17.10;99.90;;;;;;5102978;28;20190;-45
2021/07/21 02:42:47;;;;;;;13.57;10.37;;;17.10;99.90;;;;;;5105397;28;20224;-43
2021/07/21 02:45:14;;;;;;;13.83;10.00;;;17.10;99.90;;;;;;5103794;28;20303;-45
2021/07/21 02:47:43;;;;;;;12.00;9.03;;;17.10;99.90;;;;;;5090756;28;20236;-44
2021/07/21 02:50:12;;;;;;;13.17;9.80;;;17.10;99.90;;;;;;5101626;28;20187;-43
2021/07/21 02:52:42;;;;;;;14.30;9.57;;;17.10;99.90;;;;;;5105392;28;20189;-45
2021/07/21 02:55:23;;;;;;;14.13;10.43;;;17.10;99.90;;;;;;5105164;28;20239;-46
2021/07/21 02:57:56;;;;;;;15.53;9.90;;;17.10;99.90;;;;;;5105377;28;20208;-43
2021/07/21 03:00:28;;;;;;;12.37;10.40;;;17.10;99.90;;;;;;5104148;28;20192;-49
2021/07/21 03:03:09;;;;;;;14.17;10.07;;;17.10;99.90;;;;;;5088351;28;20590;-43
2021/07/21 03:05:41;;;;;;;16.70;10.93;;;17.10;99.90;;;;;;5106665;27;20217;-45
2021/07/21 03:08:17;;;;;;;15.10;10.33;;;17.00;99.90;;;;;;5101768;28;20240;-43
2021/07/21 03:10:48;;;;;;;12.03;10.73;;;17.10;99.90;;;;;;5104163;28;20197;-45
2021/07/21 03:13:25;;;;;;;15.83;10.27;;;17.00;99.90;;;;;;5103284;28;20189;-43
2021/07/21 03:15:53;;;;;;;14.40;10.17;;;17.00;99.90;;;;;;5103534;28;20279;-43
2021/07/21 03:18:32;;;;;;;15.20;10.67;;;17.00;99.90;;;;;;5089748;28;20227;-44
2021/07/21 03:21:00;;;;;;;13.33;10.60;;;17.00;99.90;;;;;;5102403;28;20189;-43
2021/07/21 03:23:32;;;;;;;18.73;10.63;;;17.00;99.90;;;;;;5105062;28;20647;-43
2021/07/21 03:26:21;;;;;;;13.50;10.40;;;17.00;99.90;;;;;;5103962;28;20197;-45
2021/07/21 03:28:50;;;;;;;17.27;9.87;;;17.00;99.90;;;;;;5105016;28;20189;-42
2021/07/21 03:31:18;;;;;;;15.50;10.53;;;17.00;99.90;;;;;;5103590;28;20189;-45
2021/07/21 03:33:56;;;;;;;14.10;10.20;;;17.00;99.90;;;;;;5089543;28;20205;-45
2021/07/21 03:36:23;;;;;;;14.27;10.20;;;17.00;99.90;;;;;;5103220;28;20999;-45
2021/07/21 03:39:13;;;;;;;16.40;10.37;;;17.00;99.90;;;;;;5100499;28;20190;-45
2021/07/21 03:41:59;;;;;;;12.03;9.40;;;17.00;99.90;;;;;;5101432;28;20239;-45
2021/07/21 03:44:27;;;;;;;13.77;10.13;;;17.00;99.90;;;;;;5104847;28;20244;-43
2021/07/21 03:46:59;;;;;;;14.33;10.47;;;17.00;99.90;;;;;;5101523;28;20239;-43
2021/07/21 03:49:29;;;;;;;14.63;9.40;;;16.90;99.90;;;;;;5084872;27;20710;-43
2021/07/21 03:52:04;;;;;;;17.50;9.57;;;17.00;99.90;;;;;;5091943;28;20199;-43
2021/07/21 03:54:40;;;;;;;14.07;10.13;;;17.00;99.90;;;;;;5105656;28;20224;-45
2021/07/21 03:57:18;;;;;;;14.33;9.87;;;17.00;99.90;;;;;;5099042;28;20194;-45
2021/07/21 03:59:46;;;;;;;18.93;9.43;;;17.00;99.90;;;;;;5103101;28;20630;-42
2021/07/21 04:02:16;;;;;;;12.50;9.63;;;17.00;99.90;;;;;;5103952;28;20256;-48
2021/07/21 04:04:47;;;;;;;13.67;10.20;;;17.00;99.90;;;;;;5092176;28;20221;-43
2021/07/21 04:07:20;;;;;;;14.00;10.00;;;17.00;99.90;;;;;;5102870;28;20199;-45
2021/07/21 04:10:11;;;;;;;14.93;10.53;;;17.00;99.90;;;;;;5100753;28;20236;-47
2021/07/21 04:12:48;;;;;;;13.90;9.00;;;17.00;99.90;;;;;;5106229;28;20189;-42
2021/07/21 04:15:22;;;;;;;12.13;9.77;;;17.00;99.90;;;;;;5104219;28;20288;-44
2021/07/21 04:17:55;;;;;;;15.40;9.63;;;17.00;99.90;;;;;;5103917;28;20207;-42
2021/07/21 04:20:27;;;;;;;15.57;10.00;;;17.00;99.90;;;;;;5091387;28;20209;-48
2021/07/21 04:22:56;;;;;;;15.33;10.70;;;17.00;99.90;;;;;;5103973;28;20237;-43
2021/07/21 04:25:25;;;;;;;15.00;10.00;;;17.00;99.90;;;;;;5103499;28;20216;-44
2021/07/21 04:27:59;;;;;;;14.33;10.40;;;17.00;99.90;;;;;;5096357;28;20196;-42
2021/07/21 04:30:31;;;;;;;13.70;9.77;;;17.00;99.90;;;;;;5106168;28;20200;-46
2021/07/21 04:32:59;;;;;;;15.87;10.57;;;17.00;99.90;;;;;;5103298;28;20276;-43
2021/07/21 04:35:29;;;;;;;17.07;10.57;;;17.00;99.90;;;;;;5103728;28;20341;-44
2021/07/21 04:38:01;;;;;;;17.73;10.73;;;17.00;99.90;;;;;;5088472;28;20256;-44
2021/07/21 04:40:43;;;;;;;19.17;10.93;;;17.10;99.90;;;;;;5103996;28;20621;-43
2021/07/21 04:43:30;;;;;;;14.47;10.23;;;17.00;99.90;;;;;;5072734;28;20698;-44
2021/07/21 04:45:59;;;;;;;18.23;10.93;;;17.10;99.90;;;;;;5101451;28;20273;-43
2021/07/21 04:48:26;;;;;;;14.50;9.90;;;17.10;99.90;;;;;;5102939;28;20739;-48
2021/07/21 04:51:03;;;;;;;14.93;9.87;;;17.10;99.90;;;;;;5098795;28;20205;-42
2021/07/21 04:53:31;;;;;;;16.53;9.70;;;17.10;99.90;;;;;;5088259;28;20201;-43
2021/07/21 04:55:59;;;;;;;17.17;11.20;;;17.10;99.90;;;;;;5101485;28;20258;-44
2021/07/21 04:58:27;;;;;;;14.23;10.43;;;17.10;99.90;;;;;;5099926;28;20300;-44
2021/07/21 05:01:03;;;;;;;15.80;10.40;;;17.10;99.90;;;;;;5093483;28;20196;-42
2021/07/21 05:03:29;;;;;;;17.57;10.10;;;17.20;99.90;;;;;;5090558;28;20408;-43
2021/07/21 05:05:59;;;;;;;13.60;9.83;;;17.20;99.90;;;;;;5084527;28;20209;-42
2021/07/21 05:08:36;;;;;;;13.97;9.33;;;17.20;99.90;;;;;;5071335;28;20209;-44
2021/07/21 05:11:20;;;;;;;14.90;10.07;;;17.20;99.90;;;;;;5093935;28;20239;-43
2021/07/21 05:13:47;;;;;;;18.47;10.40;;;17.20;99.90;;;;;;5100550;28;20185;-45
2021/07/21 05:16:17;;;;;;;16.03;9.60;;;17.20;99.90;;;;;;5097163;28;20190;-43
2021/07/21 05:18:46;;;;;;;14.30;9.20;;;17.20;99.90;;;;;;5093468;28;20288;-43
2021/07/21 05:21:19;;;;;;;15.57;10.80;;;17.20;99.90;;;;;;5100441;28;20228;-42
2021/07/21 05:23:48;;;;;;;15.87;9.47;;;17.20;99.90;;;;;;5082250;28;20221;-43
2021/07/21 05:26:14;;;;;;;15.07;9.87;;;17.30;99.90;;;;;;5100465;28;20193;-44
2021/07/21 05:28:57;;;;;;;11.57;10.17;;;17.20;99.90;;;;;;5092174;28;20290;-44
2021/07/21 05:31:43;;;;;;;14.63;10.63;;;17.20;99.90;;;;;;5101411;28;20208;-43
2021/07/21 05:34:27;;;;;;;15.00;10.17;;;17.20;99.90;;;;;;5093973;28;20362;-45
2021/07/21 05:37:13;;;;;;;18.63;10.50;;;17.20;99.90;;;;;;5090482;28;20207;-44
2021/07/21 05:40:04;;;;;;;15.40;9.83;;;17.20;99.90;;;;;;5084789;28;20212;-46
2021/07/21 05:42:54;;;;;;;16.00;10.50;;;17.20;99.90;;;;;;5100832;28;20320;-44
2021/07/21 05:45:24;;;;;;;15.03;10.27;;;17.20;99.90;;;;;;5091301;28;20267;-42
2021/07/21 05:47:51;;;;;;;17.40;11.13;;;17.30;99.90;;;;;;5096237;28;20262;-44
2021/07/21 05:50:18;;;;;;;15.97;10.87;;;17.30;99.90;;;;;;5086512;28;20615;-43
2021/07/21 05:52:56;;;;;;;15.33;10.30;;;17.30;99.90;;;;;;5095083;28;20193;-45
2021/07/21 05:55:27;;;;;;;18.93;10.77;;;17.30;99.90;;;;;;5077524;28;20700;-42
2021/07/21 05:57:53;;;;;;;13.47;10.30;;;17.30;99.90;;;;;;5090693;28;20340;-41
2021/07/21 06:00:22;;;;;;;13.73;10.50;;;17.30;99.90;;;;;;5103231;28;20225;-45
2021/07/21 06:02:59;;;;;;;16.90;10.93;;;17.30;99.90;;;;;;5103519;28;20216;-42
2021/07/21 06:05:46;;;;;;;13.50;9.83;;;17.30;99.90;;;;;;5100219;28;20282;-43
2021/07/21 06:08:33;;;;;;;14.57;10.07;;;17.30;99.90;;;;;;5086646;28;20692;-44
2021/07/21 06:11:07;;;;;;;16.63;11.17;;;17.30;99.90;;;;;;5086517;28;20209;-42
2021/07/21 06:13:34;;;;;;;14.87;10.77;;;17.30;99.90;;;;;;5106176;28;20197;-42
2021/07/21 06:16:06;;;;;;;15.93;10.60;;;17.40;99.90;;;;;;5097882;28;20217;-45
2021/07/21 06:18:36;;;;;;;12.90;10.13;;;17.40;99.90;;;;;;5102806;28;20204;-42
2021/07/21 06:21:04;;;;;;;15.60;10.60;;;17.40;99.90;;;;;;5092960;28;20243;-42
2021/07/21 06:23:31;;;;;;;12.97;9.83;;;17.40;99.90;;;;;;5103816;28;20217;-48
2021/07/21 06:25:58;;;;;;;12.30;9.40;;;17.50;99.90;;;;;;5090239;28;20729;-42
2021/07/21 06:28:29;;;;;;;15.07;10.23;;;17.50;99.90;;;;;;5092309;28;20317;-43
2021/07/21 06:30:57;;;;;;;16.23;9.57;;;17.50;99.90;;;;;;5104678;28;20197;-42
2021/07/21 06:33:25;;;;;;;15.13;9.70;;;17.50;99.90;;;;;;5089715;28;20190;-44
2021/07/21 06:35:53;;;;;;;12.67;9.03;;;17.50;99.90;;;;;;5101056;28;20706;-43
2021/07/21 06:38:24;;;;;;;11.63;8.70;;;17.60;99.90;;;;;;5100901;28;20199;-44
2021/07/21 06:41:04;;;;;;;12.10;8.37;;;17.60;99.90;;;;;;5088096;28;20347;-43
2021/07/21 06:43:39;;;;;;;10.93;8.57;;;17.60;99.90;;;;;;5089076;28;20256;-44
2021/07/21 06:46:13;;;;;;;13.77;8.07;;;17.70;99.90;;;;;;5099010;28;20189;-42
2021/07/21 06:48:42;;;;;;;12.33;8.23;;;17.90;99.90;;;;;;5105234;28;20193;-44
2021/07/21 06:51:09;;;;;;;11.10;7.93;;;17.90;99.90;;;;;;5088491;28;20205;-44
2021/07/21 06:53:35;;;;;;;13.57;9.63;;;18.00;99.90;;;;;;5098566;28;20550;-43
2021/07/21 06:56:17;;;;;;;10.83;7.47;;;18.00;99.90;;;;;;5080929;28;20292;-43
2021/07/21 06:58:55;;;;;;;10.97;7.40;;;18.10;99.90;;;;;;5089828;28;20229;-43
2021/07/21 07:01:23;;;;;;;11.17;8.10;;;18.10;99.90;;;;;;5099755;28;20212;-42
2021/07/21 07:04:08;;;;;;;10.93;8.73;;;18.10;99.90;;;;;;5098570;28;20224;-45
2021/07/21 07:06:53;;;;;;;13.10;9.23;;;18.20;99.90;;;;;;5087183;28;20866;-43
2021/07/21 07:09:38;;;;;;;16.70;10.00;;;18.30;99.90;;;;;;5101362;28;20610;-44
2021/07/21 07:12:16;;;;;;;13.20;8.87;;;18.30;99.90;;;;;;5086331;27;20213;-42
2021/07/21 07:14:44;;;;;;;12.30;8.97;;;18.40;99.90;;;;;;5091091;28;20228;-42
2021/07/21 07:17:11;;;;;;;13.23;9.13;;;18.40;99.90;;;;;;5095022;28;20322;-46
2021/07/21 07:19:38;;;;;;;11.43;8.77;;;18.30;99.90;;;;;;5103190;28;20195;-43
2021/07/21 07:22:05;;;;;;;10.33;7.30;;;18.40;99.90;;;;;;5098070;28;20186;-44
2021/07/21 07:24:33;;;;;;;10.73;8.03;;;18.50;99.90;;;;;;5097558;28;20282;-44
2021/07/21 07:27:00;;;;;;;10.87;8.17;;;18.50;99.90;;;;;;5081512;28;20201;-46
2021/07/21 07:29:27;;;;;;;13.07;8.33;;;18.60;99.90;;;;;;5100255;28;20204;-46
2021/07/21 07:31:55;;;;;;;10.77;7.83;;;18.50;99.90;;;;;;5100124;28;20192;-46
2021/07/21 07:34:22;;;;;;;12.67;7.63;;;18.60;99.90;;;;;;5104721;28;20213;-46
2021/07/21 07:36:49;;;;;;;11.97;8.20;;;18.50;99.90;;;;;;5096354;28;20194;-44
2021/07/21 07:39:16;;;;;;;14.53;8.83;;;18.50;99.90;;;;;;5098240;28;20204;-44
2021/07/21 07:41:43;;;;;;;13.40;8.90;;;18.50;99.90;;;;;;5082645;28;20565;-42
2021/07/21 07:44:11;;;;;;;12.60;9.17;;;18.40;99.90;;;;;;5091046;28;20225;-42
2021/07/21 07:46:38;;;;;;;11.60;9.00;;;18.40;99.90;;;;;;5105766;28;20198;-46
2021/07/21 07:49:07;;;;;;;11.57;7.83;;;18.30;99.90;;;;;;5096855;28;20194;-42
2021/07/21 07:51:34;;;;;;;10.43;7.90;;;18.20;99.90;;;;;;5095857;28;20474;-47
2021/07/21 07:54:02;;;;;;;7.83;6.93;;;18.20;99.90;;;;;;5096812;28;20716;-42
2021/07/21 07:56:29;;;;;;;9.37;6.87;;;18.10;99.90;;;;;;5086328;28;21251;-45
2021/07/21 07:58:56;;;;;;;12.67;7.17;;;18.00;99.90;;;;;;5098828;28;20206;-42
2021/07/21 08:01:22;;;;;;;9.40;6.50;;;17.90;99.90;;;;;;5101026;28;20200;-48
2021/07/21 08:03:49;;;;;;;8.30;6.80;;;17.90;99.90;;;;;;5098492;28;20573;-45
2021/07/21 08:06:17;;;;;;;7.97;6.87;;;17.90;99.90;;;;;;5101809;28;20189;-49
2021/07/21 08:08:44;;;;;;;10.07;7.20;;;18.00;99.90;;;;;;5105664;28;20201;-47
2021/07/21 08:11:12;;;;;;;9.43;6.93;;;18.00;99.90;;;;;;5099060;28;20204;-42
2021/07/21 08:13:39;;;;;;;8.27;7.10;;;18.10;99.90;;;;;;5085940;28;20276;-47
2021/07/21 08:16:06;;;;;;;9.07;6.90;;;18.20;99.90;;;;;;5101316;28;20203;-43
2021/07/21 08:18:33;;;;;;;6.60;5.90;;;18.20;99.90;;;;;;5100470;28;20812;-46
2021/07/21 08:21:00;;;;;;;8.30;6.20;;;18.30;99.90;;;;;;5097148;28;20553;-44
2021/07/21 08:23:27;;;;;;;9.07;6.17;;;18.30;99.90;;;;;;5102747;28;20244;-47
2021/07/21 08:25:54;;;;;;;8.63;5.70;;;18.30;99.90;;;;;;5098652;28;20225;-43
2021/07/21 08:28:21;;;;;;;7.30;5.83;;;18.30;99.90;;;;;;5086442;28;20216;-47
2021/07/21 08:30:49;;;;;;;8.47;5.53;;;18.40;99.90;;;;;;5098349;28;20201;-44
2021/07/21 08:33:16;;;;;;;7.00;5.30;;;18.40;99.90;;;;;;5099150;28;20797;-45
2021/07/21 08:35:44;;;;;;;7.83;5.63;;;18.50;99.90;;;;;;5100026;28;20583;-48
2021/07/21 08:38:12;;;;;;;6.30;4.97;;;18.50;99.90;;;;;;5094105;28;20201;-41
2021/07/21 08:40:41;;;;;;;7.47;5.60;;;18.50;99.90;;;;;;5089432;28;20202;-45
2021/07/21 08:43:09;;;;;;;6.03;5.43;;;18.50;99.90;;;;;;5097408;28;20851;-49
2021/07/21 08:45:36;;;;;;;6.57;5.57;;;18.60;99.90;;;;;;5084992;28;20624;-42
2021/07/21 08:48:03;;;;;;;9.13;5.33;;;18.60;99.90;;;;;;5102397;28;20565;-43
2021/07/21 08:50:29;;;;;;;6.30;5.27;;;18.60;99.90;;;;;;5097963;28;20202;-45
2021/07/21 08:52:58;;;;;;;5.43;4.93;;;18.60;99.90;;;;;;5084180;28;20200;-44
2021/07/21 08:55:26;;;;;;;5.80;5.30;;;18.60;99.90;;;;;;5101887;28;20220;-45
2021/07/21 08:57:54;;;;;;;6.47;5.87;;;18.60;99.90;;;;;;5098085;28;20765;-42
2021/07/21 09:00:21;;;;;;;6.73;5.40;;;18.80;99.90;;;;;;5082698;28;21605;-45
2021/07/21 09:02:47;;;;;;;7.20;5.60;;;18.80;99.90;;;;;;5099028;28;20567;-46
2021/07/21 09:05:16;;;;;;;7.67;5.03;;;18.90;99.90;;;;;;5095677;28;20209;-47
2021/07/21 09:07:43;;;;;;;5.20;4.70;;;18.90;99.90;;;;;;5091196;27;20245;-43
2021/07/21 09:10:12;;;;;;;7.07;4.80;;;18.90;99.90;;;;;;5086375;28;20190;-43
2021/07/21 09:12:39;;;;;;;7.20;5.57;;;19.00;99.90;;;;;;5096611;28;20201;-42
2021/07/21 09:15:12;;;;;;;7.00;5.10;;;19.10;99.90;;;;;;5085670;28;20235;-44
2021/07/21 09:17:59;;;;;;;6.87;5.20;;;19.20;99.90;;;;;;5097181;28;20693;-41
2021/07/21 09:20:26;;;;;;;5.90;5.37;;;19.20;99.90;;;;;;5092935;28;20602;-44
2021/07/21 09:22:53;;;;;;;6.23;5.37;;;19.20;99.90;;;;;;5096564;28;20208;-42
2021/07/21 09:25:23;;;;;;;8.63;6.07;;;19.20;99.90;;;;;;5097524;28;20212;-47
2021/07/21 09:27:52;;;;;;;9.07;6.07;;;19.30;99.90;;;;;;5092981;28;20206;-43
2021/07/21 09:30:22;;;;;;;8.40;5.67;;;19.30;99.90;;;;;;5076807;28;21873;-47
2021/07/21 09:33:00;;;;;;;7.53;5.57;;;19.30;99.90;;;;;;5099101;28;20204;-43
2021/07/21 09:35:29;;;;;;;9.10;6.17;;;19.20;99.90;;;;;;5108258;28;20232;-44
2021/07/21 09:37:59;;;;;;;8.80;5.40;;;19.10;99.90;;;;;;5088799;28;20201;-42
2021/07/21 09:40:26;;;;;;;8.50;6.33;;;18.90;99.90;;;;;;5103369;28;20202;-47
2021/07/21 09:42:53;;;;;;;8.10;5.83;;;18.80;99.90;;;;;;5104540;28;20662;-44
2021/07/21 09:45:21;;;;;;;11.37;7.50;;;18.70;99.90;;;;;;5088970;28;20216;-46
2021/07/21 09:47:52;;;;;;;9.07;7.27;;;18.60;99.90;;;;;;5103860;28;20779;-43
2021/07/21 09:50:24;;;;;;;8.97;6.40;;;18.50;99.90;;;;;;5098665;28;20213;-47
2021/07/21 09:52:53;;;;;;;9.67;6.77;;;18.40;99.90;;;;;;5092999;28;20190;-45
2021/07/21 09:55:21;;;;;;;7.20;6.07;;;18.40;99.90;;;;;;5103848;28;20304;-47
2021/07/21 09:58:05;;;;;;;7.43;6.23;;;18.30;99.90;;;;;;5104019;28;20190;-41
2021/07/21 10:00:34;;;;;;;8.43;6.63;;;18.20;99.90;;;;;;5090031;28;20205;-46
2021/07/21 10:03:17;;;;;;;9.10;5.53;;;18.20;99.90;;;;;;5077897;28;20201;-41
2021/07/21 10:06:02;;;;;;;6.87;6.13;;;18.20;99.90;;;;;;5105336;28;20217;-43
2021/07/21 10:08:31;;;;;;;7.57;5.67;;;18.20;99.90;;;;;;5101831;28;20201;-43
2021/07/21 10:10:59;;;;;;;6.37;5.70;;;18.20;99.90;;;;;;5096439;28;20204;-41
2021/07/21 10:13:35;;;;;;;7.70;5.67;;;18.30;99.90;;;;;;5101063;28;20192;-45
2021/07/21 10:16:03;;;;;;;6.07;5.27;;;18.40;99.90;;;;;;5076607;28;20224;-42
2021/07/21 10:18:32;;;;;;;5.53;5.03;;;18.50;99.90;;;;;;5109269;28;20200;-43
2021/07/21 10:20:58;;;;;;;5.67;5.13;;;18.60;99.90;;;;;;5086761;28;20201;-41
2021/07/21 10:23:26;;;;;;;5.87;4.80;;;18.70;99.90;;;;;;5102222;28;20725;-43
2021/07/21 10:25:53;;;;;;;7.33;5.33;;;18.80;99.90;;;;;;5095940;28;20630;-42
2021/07/21 10:28:20;;;;;;;5.57;5.07;;;19.00;99.90;;;;;;5095706;28;20201;-42
2021/07/21 10:30:48;;;;;;;9.20;6.10;;;19.00;99.90;;;;;;5098477;28;20197;-46
2021/07/21 10:33:17;;;;;;;8.63;5.83;;;19.10;99.90;;;;;;5079035;28;20276;-43
2021/07/21 10:35:44;;;;;;;6.30;5.40;;;19.20;99.90;;;;;;5094544;27;20225;-45
2021/07/21 10:38:11;;;;;;;6.70;5.67;;;19.20;99.90;;;;;;5090193;28;20198;-42
2021/07/21 10:40:38;;;;;;;10.17;7.07;;;19.20;99.90;;;;;;5097110;28;20268;-43
2021/07/21 10:43:06;;;;;;;8.00;5.93;;;19.20;99.90;;;;;;5092406;28;20182;-43
2021/07/21 10:45:34;;;;;;;7.33;5.87;;;19.30;99.90;;;;;;5088894;28;20747;-42
2021/07/21 10:48:09;;;;;;;8.00;6.23;;;19.40;99.90;;;;;;5079293;28;22521;-44
2021/07/21 10:50:43;;;;;;;7.70;5.83;;;19.40;99.90;;;;;;5100799;28;20188;-42
2021/07/21 10:59:21;;;;;;;8.77;6.10;;;19.50;99.90;;;;;;5094039;28;20211;-43
2021/07/21 11:01:50;;;;;;;6.93;5.37;;;19.70;99.90;;;;;;5088832;28;20288;-45
2021/07/21 11:04:17;;;;;;;6.27;5.67;;;19.70;99.90;;;;;;5080600;28;20294;-43
2021/07/21 11:06:47;;;;;;;6.90;5.93;;;19.80;99.90;;;;;;5092816;28;20202;-45
2021/07/21 11:09:25;;;;;;;9.03;5.77;;;19.80;99.90;;;;;;5102073;28;20298;-43
2021/07/21 11:11:57;;;;;;;6.00;5.27;;;19.70;99.90;;;;;;5098039;28;20318;-46
2021/07/21 11:14:25;;;;;;;7.10;5.87;;;19.70;99.90;;;;;;5099994;28;20758;-42
2021/07/21 11:16:53;;;;;;;6.67;5.70;;;19.80;99.90;;;;;;5098869;28;20212;-44
2021/07/21 11:19:46;;;;;;;7.53;5.80;;;19.90;99.90;;;;;;5091177;28;20194;-42
2021/07/21 11:22:27;;;;;;;7.57;6.23;;;20.00;99.90;;;;;;5088228;28;20204;-44
2021/07/21 11:25:18;;;;;;;6.90;6.10;;;20.00;99.90;;;;;;5100776;28;20618;-43
2021/07/21 11:27:47;;;;;;;6.97;5.67;;;20.00;99.90;;;;;;5096544;28;20210;-44
2021/07/21 11:30:41;;;;;;;11.03;5.77;;;20.20;99.90;;;;;;5092706;28;20746;-43
2021/07/21 11:33:49;;;;;;;6.93;5.50;;;20.20;99.90;;;;;;5093716;28;20188;-43
2021/07/21 11:36:48;;;;;;;10.13;6.07;;;20.30;99.90;;;;;;5084123;28;20208;-43
2021/07/21 11:39:41;;;;;;;7.73;5.77;;;20.40;99.90;;;;;;5086557;28;20194;-43
2021/07/21 11:42:12;;;;;;;7.57;5.87;;;20.40;99.90;;;;;;5089611;28;20967;-43
2021/07/21 11:44:40;;;;;;;6.60;5.80;;;20.50;99.90;;;;;;5097293;28;20578;-43
2021/07/21 11:47:12;;;;;;;7.00;5.37;;;20.70;99.90;;;;;;5076461;28;22626;-45
2021/07/21 11:49:39;;;;;;;8.07;5.30;;;20.90;99.90;;;;;;5096911;28;20193;-45
2021/07/21 11:52:07;;;;;;;7.50;5.53;;;20.90;99.90;;;;;;5078527;28;20898;-43
2021/07/21 11:54:36;;;;;;;5.50;5.00;;;21.00;99.90;;;;;;5093739;28;20229;-45
2021/07/21 11:57:06;;;;;;;6.30;5.03;;;20.90;99.90;;;;;;5088608;28;20196;-47
2021/07/21 11:59:34;;;;;;;7.17;4.73;;;20.70;99.90;;;;;;5100376;28;20201;-47
2021/07/21 12:02:06;;;;;;;5.53;4.97;;;20.70;99.90;;;;;;5086899;28;20205;-46
2021/07/21 12:04:33;;;;;;;8.40;5.47;;;20.40;99.90;;;;;;5092090;28;20708;-46
2021/07/21 12:07:00;;;;;;;5.10;4.60;;;20.30;99.90;;;;;;5085127;28;20201;-41
2021/07/21 12:09:28;;;;;;;7.17;5.80;;;20.20;99.90;;;;;;5098708;28;20697;-50
2021/07/21 12:11:56;;;;;;;6.90;5.47;;;20.10;99.90;;;;;;5093781;28;20208;-45
2021/07/21 12:14:26;;;;;;;9.60;5.40;;;20.10;99.90;;;;;;5093073;28;20338;-47
2021/07/21 12:16:54;;;;;;;9.10;5.67;;;20.20;99.90;;;;;;5099756;28;20205;-42
2021/07/21 12:19:25;;;;;;;5.80;5.07;;;20.30;99.90;;;;;;5097447;28;20635;-45
2021/07/21 12:22:00;;;;;;;6.43;5.23;;;20.40;99.90;;;;;;5090438;28;20213;-45
2021/07/21 12:24:33;;;;;;;5.60;5.10;;;20.50;99.90;;;;;;5087844;28;20217;-48
2021/07/21 12:27:00;;;;;;;6.10;5.50;;;20.70;99.90;;;;;;5087233;28;20205;-43
2021/07/21 12:29:29;;;;;;;5.67;5.17;;;20.90;99.90;;;;;;5104067;27;20190;-44
2021/07/21 12:32:04;;;;;;;5.80;5.03;;;20.80;99.90;;;;;;5092478;28;20202;-41
2021/07/21 12:34:31;;;;;;;8.13;5.20;;;20.60;99.90;;;;;;5096262;28;20266;-43
2021/07/21 12:36:57;;;;;;;5.60;4.90;;;20.60;99.90;;;;;;5099526;28;20190;-43
2021/07/21 12:39:26;;;;;;;5.43;4.93;;;20.50;99.90;;;;;;5091187;28;20200;-44
2021/07/21 12:41:54;;;;;;;6.50;5.03;;;20.60;99.90;;;;;;5099401;28;20556;-41
2021/07/21 12:44:26;;;;;;;5.17;4.67;;;20.60;99.90;;;;;;5099066;28;20227;-43
2021/07/21 12:47:10;;;;;;;5.30;4.40;;;20.50;99.90;;;;;;5090145;28;20190;-42
2021/07/21 12:49:37;;;;;;;6.60;5.10;;;20.60;99.90;;;;;;5097982;28;20208;-49
2021/07/21 12:52:05;;;;;;;4.77;4.33;;;20.60;99.90;;;;;;5093814;28;20817;-46
2021/07/21 12:54:32;;;;;;;5.17;4.30;;;20.70;99.90;;;;;;5089525;28;20229;-48
2021/07/21 12:56:59;;;;;;;6.93;4.60;;;20.90;99.90;;;;;;5100821;28;20195;-41
2021/07/21 12:59:35;;;;;;;5.33;4.30;;;20.90;99.90;;;;;;5091054;28;20202;-46
2021/07/21 13:02:15;;;;;;;5.50;4.90;;;20.80;99.90;;;;;;5090077;28;20922;-45
2021/07/21 13:04:43;;;;;;;6.27;4.57;;;20.70;99.90;;;;;;5098567;28;20220;-42
2021/07/21 13:07:10;;;;;;;6.07;4.63;;;20.90;99.90;;;;;;5085164;28;20844;-44
2021/07/21 13:09:37;;;;;;;5.27;4.43;;;20.90;99.90;;;;;;5082315;28;20201;-48